createdAt,value
2022-10-11T00:00:43.588Z,10.00
2022-10-11T00:01:46.150Z,9.02
2022-10-11T00:02:48.743Z,9.85
2022-10-11T00:03:51.127Z,11.20
2022-10-11T00:04:53.589Z,8.98
2022-10-11T00:05:59.044Z,10.75
2022-10-11T00:07:04.604Z,9.57
2022-10-11T00:08:07.035Z,10.32
2022-10-11T00:09:11.869Z,9.73
2022-10-11T00:10:14.275Z,10.85
2022-10-11T00:11:19.240Z,11.85
2022-10-11T00:12:21.577Z,11.15
2022-10-11T00:13:24.332Z,10.70
2022-10-11T00:14:28.085Z,11.40
2022-10-11T00:15:31.081Z,10.93
2022-10-11T00:16:35.957Z,12.85
2022-10-11T00:17:38.319Z,13.27
2022-10-11T00:18:40.630Z,11.75
2022-10-11T00:19:43.140Z,12.20
2022-10-11T00:20:45.695Z,12.10
2022-10-11T00:21:48.401Z,14.05
2022-10-11T00:22:50.751Z,12.75
2022-10-11T00:23:53.201Z,12.27
2022-10-11T00:24:55.615Z,12.73
2022-10-11T00:26:04.000Z,12.05
2022-10-11T00:27:07.608Z,13.43
2022-10-11T00:28:10.101Z,13.05
2022-10-11T00:29:13.007Z,13.30
2022-10-11T00:30:15.436Z,13.13
2022-10-11T00:31:18.014Z,13.82
2022-10-11T00:32:20.470Z,12.98
2022-10-11T00:33:22.970Z,13.30
2022-10-11T00:34:28.692Z,13.60
2022-10-11T00:35:31.531Z,13.52
2022-10-11T00:36:34.228Z,13.02
2022-10-11T00:37:38.833Z,12.52
2022-10-11T00:38:41.295Z,12.63
2022-10-11T00:39:43.654Z,12.82
2022-10-11T00:40:46.309Z,12.38
2022-10-11T00:41:49.483Z,13.23
2022-10-11T00:42:54.357Z,13.88
2022-10-11T00:44:21.102Z,12.25
2022-10-11T00:45:35.666Z,13.15
2022-10-11T00:46:38.680Z,12.65
2022-10-11T00:47:41.473Z,14.00
2022-10-11T00:48:51.074Z,13.38
2022-10-11T00:49:57.809Z,14.02
2022-10-11T00:51:04.972Z,13.77
2022-10-11T00:52:31.341Z,13.82
2022-10-11T00:53:34.224Z,12.75
2022-10-11T00:54:41.425Z,14.35
2022-10-11T00:55:54.058Z,13.30
2022-10-11T00:57:03.168Z,14.55
2022-10-11T00:58:06.518Z,13.85
2022-10-11T00:59:16.742Z,13.38
2022-10-11T01:00:20.286Z,13.68
2022-10-11T01:01:22.662Z,13.20
2022-10-11T01:02:26.479Z,13.55
2022-10-11T01:03:31.720Z,12.80
2022-10-11T01:04:34.715Z,12.77
2022-10-11T01:05:39.076Z,12.20
2022-10-11T01:06:42.112Z,12.63
2022-10-11T01:07:48.072Z,12.43
2022-10-11T01:08:52.326Z,13.18
2022-10-11T01:09:54.933Z,12.60
2022-10-11T01:10:57.740Z,12.98
2022-10-11T01:12:03.033Z,12.60
2022-10-11T01:13:17.496Z,13.07
2022-10-11T01:14:25.719Z,13.15
2022-10-11T01:15:35.071Z,11.95
2022-10-11T01:16:40.276Z,13.65
2022-10-11T01:17:56.951Z,13.40
2022-10-11T01:19:19.358Z,13.20
2022-10-11T01:20:49.779Z,12.73
2022-10-11T01:22:06.176Z,11.95
2022-10-11T01:23:23.396Z,12.00
2022-10-11T01:24:36.555Z,12.00
2022-10-11T01:26:12.659Z,12.40
2022-10-11T01:27:26.912Z,11.55
2022-10-11T01:28:35.077Z,11.07
2022-10-11T01:30:05.142Z,11.38
2022-10-11T01:31:34.493Z,11.68
2022-10-11T01:32:49.125Z,11.43
2022-10-11T01:34:03.351Z,11.32
2022-10-11T01:35:55.003Z,10.88
2022-10-11T01:37:02.139Z,11.00
2022-10-11T01:38:20.375Z,11.55
2022-10-11T01:39:45.382Z,11.13
2022-10-11T01:40:53.239Z,11.48
2022-10-11T01:42:00.596Z,11.43
2022-10-11T01:43:05.009Z,12.55
2022-10-11T01:44:08.462Z,12.68
2022-10-11T01:45:16.108Z,12.85
2022-10-11T01:46:19.843Z,13.25
2022-10-11T01:47:23.972Z,11.82
2022-10-11T01:49:28.451Z,11.85
2022-10-11T01:50:35.516Z,12.02
2022-10-11T01:51:47.525Z,11.73
2022-10-11T01:52:51.069Z,12.23
2022-10-11T01:54:14.353Z,12.45
2022-10-11T01:55:38.383Z,11.05
2022-10-11T01:56:49.806Z,12.15
2022-10-11T01:58:05.791Z,11.52
2022-10-11T01:59:45.762Z,12.57
2022-10-11T02:01:25.623Z,12.02
2022-10-11T02:02:46.275Z,12.05
2022-10-11T02:04:05.644Z,12.68
2022-10-11T02:05:21.336Z,12.07
2022-10-11T02:06:31.074Z,11.10
2022-10-11T02:07:49.185Z,11.73
2022-10-11T02:09:15.323Z,10.60
2022-10-11T02:10:28.378Z,10.88
2022-10-11T02:11:33.496Z,11.10
2022-10-11T02:12:47.478Z,11.88
2022-10-11T02:14:15.828Z,11.23
2022-10-11T02:15:20.673Z,10.52
2022-10-11T02:16:28.843Z,11.43
2022-10-11T02:17:35.816Z,11.52
2022-10-11T02:18:43.612Z,10.90
2022-10-11T02:19:50.375Z,12.15
2022-10-11T02:20:54.001Z,12.70
2022-10-11T02:22:03.130Z,13.02
2022-10-11T02:23:12.724Z,11.63
2022-10-11T02:24:23.558Z,11.85
2022-10-11T02:25:29.019Z,11.77
2022-10-11T02:26:33.880Z,11.98
2022-10-11T02:27:39.541Z,11.80
2022-10-11T02:28:45.296Z,11.80
2022-10-11T02:29:49.734Z,13.63
2022-10-11T02:30:52.695Z,11.98
2022-10-11T02:31:59.588Z,11.18
2022-10-11T02:33:07.929Z,11.20
2022-10-11T02:34:13.444Z,11.35
2022-10-11T02:35:17.074Z,11.75
2022-10-11T02:36:33.275Z,11.70
2022-10-11T02:37:56.359Z,11.00
2022-10-11T02:39:05.223Z,10.65
2022-10-11T02:40:13.433Z,12.30
2022-10-11T02:41:23.680Z,12.00
2022-10-11T02:42:36.658Z,10.48
2022-10-11T02:43:43.315Z,11.85
2022-10-11T02:44:53.552Z,12.40
2022-10-11T02:47:08.930Z,10.98
2022-10-11T02:48:12.939Z,11.52
2022-10-11T02:49:17.107Z,10.98
2022-10-11T02:50:19.585Z,11.38
2022-10-11T02:51:21.836Z,11.15
2022-10-11T02:52:24.184Z,10.82
2022-10-11T02:53:27.127Z,12.38
2022-10-11T02:54:29.500Z,11.85
2022-10-11T02:55:32.216Z,11.55
2022-10-11T02:56:34.610Z,11.20
2022-10-11T02:57:36.951Z,10.88
2022-10-11T02:58:39.856Z,11.35
2022-10-11T02:59:42.149Z,11.10
2022-10-11T03:00:45.006Z,13.18
2022-10-11T03:01:47.423Z,11.68
2022-10-11T03:02:49.979Z,12.68
2022-10-11T03:03:52.524Z,11.88
2022-10-11T03:04:54.868Z,11.38
2022-10-11T03:06:02.972Z,11.73
2022-10-11T03:07:05.550Z,12.45
2022-10-11T03:08:09.069Z,11.63
2022-10-11T03:09:11.493Z,11.32
2022-10-11T03:10:13.840Z,12.00
2022-10-11T03:11:16.111Z,11.68
2022-10-11T03:12:18.438Z,11.40
2022-10-11T03:13:20.806Z,12.40
2022-10-11T03:14:24.393Z,12.57
2022-10-11T03:15:26.965Z,11.88
2022-10-11T03:16:29.351Z,11.85
2022-10-11T03:17:36.675Z,12.02
2022-10-11T03:18:39.405Z,11.38
2022-10-11T03:19:41.780Z,12.05
2022-10-11T03:20:44.523Z,11.85
2022-10-11T03:21:47.011Z,12.73
2022-10-11T03:22:49.520Z,12.45
2022-10-11T03:23:51.851Z,12.50
2022-10-11T03:24:54.238Z,11.85
2022-10-11T03:25:56.749Z,11.63
2022-10-11T03:27:00.564Z,13.52
2022-10-11T03:28:03.122Z,12.90
2022-10-11T03:29:05.618Z,12.63
2022-10-11T03:30:16.130Z,12.13
2022-10-11T03:31:20.846Z,12.27
2022-10-11T03:32:23.305Z,13.18
2022-10-11T03:33:25.653Z,13.02
2022-10-11T03:34:28.106Z,13.27
2022-10-11T03:35:30.577Z,14.02
2022-10-11T03:36:33.074Z,13.45
2022-10-11T03:37:35.474Z,13.40
2022-10-11T03:38:38.069Z,12.93
2022-10-11T03:39:40.507Z,13.07
2022-10-11T03:40:44.132Z,13.18
2022-10-11T03:41:46.669Z,13.30
2022-10-11T03:42:49.112Z,13.50
2022-10-11T03:43:51.626Z,13.25
2022-10-11T03:44:57.383Z,13.35
2022-10-11T03:45:59.830Z,13.45
2022-10-11T03:47:02.285Z,14.07
2022-10-11T03:48:05.268Z,13.18
2022-10-11T03:49:07.593Z,12.93
2022-10-11T03:50:10.414Z,13.18
2022-10-11T03:51:13.420Z,14.45
2022-10-11T03:52:15.765Z,13.50
2022-10-11T03:53:18.293Z,12.95
2022-10-11T03:54:20.934Z,14.27
2022-10-11T03:55:23.337Z,13.05
2022-10-11T03:56:26.030Z,13.73
2022-10-11T03:57:28.425Z,14.18
2022-10-11T03:58:32.989Z,15.50
2022-10-11T03:59:35.264Z,13.85
2022-10-11T04:00:37.991Z,13.07
2022-10-11T04:01:40.394Z,13.80
2022-10-11T04:02:42.737Z,13.63
2022-10-11T04:03:45.052Z,14.40
2022-10-11T04:04:47.537Z,14.15
2022-10-11T04:05:50.031Z,13.88
2022-10-11T04:06:52.566Z,14.07
2022-10-11T04:07:54.946Z,14.15
2022-10-11T04:08:57.343Z,14.30
2022-10-11T04:10:00.041Z,13.65
2022-10-11T04:11:02.490Z,13.70
2022-10-11T04:12:05.193Z,12.45
2022-10-11T04:13:08.234Z,13.73
2022-10-11T04:14:11.084Z,14.32
2022-10-11T04:15:16.731Z,13.70
2022-10-11T04:16:19.483Z,14.73
2022-10-11T04:17:22.221Z,14.45
2022-10-11T04:18:24.870Z,14.00
2022-10-11T04:19:27.458Z,14.65
2022-10-11T04:20:29.930Z,13.32
2022-10-11T04:21:32.530Z,13.40
2022-10-11T04:22:34.993Z,14.32
2022-10-11T04:23:39.667Z,13.88
2022-10-11T04:24:41.993Z,14.60
2022-10-11T04:25:45.696Z,12.77
2022-10-11T04:26:49.702Z,14.18
2022-10-11T04:27:52.309Z,13.25
2022-10-11T04:28:54.889Z,15.02
2022-10-11T04:29:59.246Z,14.75
2022-10-11T04:31:01.828Z,14.60
2022-10-11T04:32:04.380Z,14.68
2022-10-11T04:33:06.827Z,13.63
2022-10-11T04:34:09.203Z,14.43
2022-10-11T04:35:11.985Z,14.57
2022-10-11T04:36:14.487Z,13.63
2022-10-11T04:37:17.725Z,13.43
2022-10-11T04:38:23.099Z,14.00
2022-10-11T04:39:25.542Z,12.73
2022-10-11T04:40:28.045Z,13.43
2022-10-11T04:41:30.514Z,14.27
2022-10-11T04:42:33.173Z,12.93
2022-10-11T04:43:38.306Z,12.40
2022-10-11T04:44:45.254Z,13.52
2022-10-11T04:45:48.957Z,14.50
2022-10-11T04:46:53.203Z,13.80
2022-10-11T04:47:55.580Z,14.15
2022-10-11T04:48:57.979Z,13.52
2022-10-11T04:50:00.548Z,14.48
2022-10-11T04:51:02.913Z,13.27
2022-10-11T04:52:05.660Z,14.80
2022-10-11T04:53:09.958Z,14.98
2022-10-11T04:54:12.532Z,13.57
2022-10-11T04:55:15.046Z,15.57
2022-10-11T04:56:18.782Z,15.00
2022-10-11T04:57:21.225Z,15.40
2022-10-11T04:58:23.605Z,14.45
2022-10-11T04:59:28.528Z,14.50
2022-10-11T05:00:31.407Z,14.68
2022-10-11T05:01:34.729Z,15.35
2022-10-11T05:02:37.284Z,15.88
2022-10-11T05:03:39.536Z,15.98
2022-10-11T05:04:42.951Z,15.32
2022-10-11T05:05:45.429Z,15.43
2022-10-11T05:06:48.326Z,15.50
2022-10-11T05:07:50.921Z,15.73
2022-10-11T05:08:53.369Z,14.88
2022-10-11T05:10:03.080Z,24.10
2022-10-11T05:11:08.698Z,20.73
2022-10-11T05:12:11.014Z,21.58
2022-10-11T05:13:13.787Z,20.52
2022-10-11T05:14:16.570Z,21.27
2022-10-11T05:15:19.103Z,16.92
2022-10-11T05:16:21.555Z,18.33
2022-10-11T05:17:24.315Z,17.58
2022-10-11T05:18:27.427Z,18.92
2022-10-11T05:19:29.889Z,19.25
2022-10-11T05:20:32.200Z,19.27
2022-10-11T05:21:34.739Z,26.83
2022-10-11T05:22:37.085Z,37.83
2022-10-11T05:23:39.560Z,40.13
2022-10-11T05:24:42.012Z,35.85
2022-10-11T05:25:44.621Z,29.13
2022-10-11T05:26:47.049Z,19.63
2022-10-11T05:27:52.827Z,24.40
2022-10-11T05:28:55.579Z,21.33
2022-10-11T05:29:58.143Z,21.10
2022-10-11T05:31:00.596Z,18.75
2022-10-11T05:32:03.048Z,19.35
2022-10-11T05:33:06.089Z,15.13
2022-10-11T05:34:08.473Z,14.95
2022-10-11T05:35:10.896Z,15.82
2022-10-11T05:36:13.645Z,14.93
2022-10-11T05:37:16.008Z,15.23
2022-10-11T05:38:18.659Z,15.20
2022-10-11T05:39:21.041Z,15.52
2022-10-11T05:40:23.494Z,13.98
2022-10-11T05:41:26.183Z,14.70
2022-10-11T05:42:28.670Z,13.98
2022-10-11T05:43:33.409Z,13.65
2022-10-11T05:44:36.020Z,13.35
2022-10-11T05:45:40.105Z,13.32
2022-10-11T05:47:45.037Z,13.27
2022-10-11T05:48:47.321Z,13.25
2022-10-11T05:49:49.550Z,14.48
2022-10-11T05:50:51.990Z,14.07
2022-10-11T05:51:54.523Z,14.18
2022-10-11T05:52:57.402Z,14.60
2022-10-11T05:54:00.207Z,14.18
2022-10-11T05:55:03.629Z,13.27
2022-10-11T05:56:16.928Z,13.73
2022-10-11T05:57:19.341Z,13.98
2022-10-11T05:58:22.144Z,14.52
2022-10-11T05:59:24.564Z,14.98
2022-10-11T06:00:27.008Z,16.17
2022-10-11T06:01:29.610Z,16.92
2022-10-11T06:02:34.025Z,16.08
2022-10-11T06:03:36.390Z,16.70
2022-10-11T06:04:39.778Z,16.75
2022-10-11T06:05:42.265Z,15.50
2022-10-11T06:06:45.002Z,15.80
2022-10-11T06:07:47.506Z,16.83
2022-10-11T06:08:50.572Z,16.90
2022-10-11T06:09:53.137Z,16.50
2022-10-11T06:10:55.589Z,16.85
2022-10-11T06:11:58.152Z,16.60
2022-10-11T06:13:00.856Z,15.98
2022-10-11T06:14:06.104Z,16.27
2022-10-11T06:15:10.451Z,15.82
2022-10-11T06:16:13.802Z,14.60
2022-10-11T06:17:16.228Z,14.55
2022-10-11T06:18:18.753Z,14.43
2022-10-11T06:19:22.135Z,14.55
2022-10-11T06:20:24.598Z,14.73
2022-10-11T06:21:27.218Z,13.63
2022-10-11T06:22:29.963Z,14.60
2022-10-11T06:23:32.436Z,14.80
2022-10-11T06:24:34.932Z,14.43
2022-10-11T06:25:40.157Z,13.52
2022-10-11T06:26:43.974Z,13.88
2022-10-11T06:27:49.656Z,13.70
2022-10-11T06:28:53.191Z,13.73
2022-10-11T06:29:56.689Z,13.77
2022-10-11T06:30:59.685Z,13.35
2022-10-11T06:32:02.162Z,13.63
2022-10-11T06:33:06.971Z,13.90
2022-10-11T06:34:09.714Z,14.05
2022-10-11T06:35:12.515Z,14.18
2022-10-11T06:36:17.065Z,13.05
2022-10-11T06:37:19.721Z,13.48
2022-10-11T06:38:22.523Z,14.88
2022-10-11T06:39:25.098Z,13.98
2022-10-11T06:40:27.715Z,13.77
2022-10-11T06:41:30.978Z,12.85
2022-10-11T06:42:33.361Z,13.77
2022-10-11T06:43:35.740Z,12.88
2022-10-11T06:44:39.078Z,13.27
2022-10-11T06:45:41.907Z,13.30
2022-10-11T06:46:44.274Z,12.52
2022-10-11T06:47:46.863Z,13.70
2022-10-11T06:48:52.778Z,14.55
2022-10-11T06:49:55.441Z,13.68
2022-10-11T06:51:01.472Z,14.57
2022-10-11T06:52:04.019Z,14.80
2022-10-11T06:53:09.741Z,14.13
2022-10-11T06:54:12.622Z,15.70
2022-10-11T06:55:15.268Z,14.10
2022-10-11T06:56:17.883Z,15.13
2022-10-11T06:57:21.515Z,15.88
2022-10-11T06:58:24.122Z,15.52
2022-10-11T06:59:26.630Z,16.48
2022-10-11T07:00:29.013Z,16.45
2022-10-11T07:01:31.695Z,15.23
2022-10-11T07:02:34.001Z,15.77
2022-10-11T07:03:37.138Z,14.82
2022-10-11T07:04:39.560Z,15.55
2022-10-11T07:05:42.028Z,15.35
2022-10-11T07:06:44.357Z,15.30
2022-10-11T07:07:46.885Z,14.52
2022-10-11T07:08:49.858Z,15.40
2022-10-11T07:09:52.304Z,14.75
2022-10-11T07:11:06.718Z,14.75
2022-10-11T07:12:09.166Z,14.52
2022-10-11T07:13:16.250Z,14.85
2022-10-11T07:14:19.554Z,13.80
2022-10-11T07:15:22.268Z,13.65
2022-10-11T07:16:25.586Z,15.85
2022-10-11T07:17:28.129Z,15.90
2022-10-11T07:18:32.162Z,13.93
2022-10-11T07:19:34.524Z,14.80
2022-10-11T07:20:36.905Z,13.73
2022-10-11T07:21:39.454Z,13.13
2022-10-11T07:22:41.806Z,13.35
2022-10-11T07:23:44.613Z,13.70
2022-10-11T07:24:49.282Z,13.55
2022-10-11T07:25:54.939Z,13.55
2022-10-11T07:26:57.524Z,12.45
2022-10-11T07:28:03.257Z,15.52
2022-10-11T07:29:07.009Z,15.02
2022-10-11T07:30:10.071Z,13.73
2022-10-11T07:31:16.094Z,13.75
2022-10-11T07:32:18.489Z,13.30
2022-10-11T07:33:20.799Z,14.48
2022-10-11T07:34:25.614Z,13.75
2022-10-11T07:35:30.679Z,13.45
2022-10-11T07:36:36.186Z,12.95
2022-10-11T07:37:39.450Z,13.32
2022-10-11T07:38:44.716Z,12.07
2022-10-11T07:39:49.524Z,12.68
2022-10-11T07:40:52.292Z,12.15
2022-10-11T07:41:57.325Z,12.88
2022-10-11T07:43:00.995Z,12.75
2022-10-11T07:44:03.965Z,12.48
2022-10-11T07:45:06.856Z,13.05
2022-10-11T07:46:12.805Z,12.95
2022-10-11T07:47:15.611Z,12.80
2022-10-11T07:48:18.414Z,12.63
2022-10-11T07:49:21.102Z,11.95
2022-10-11T07:50:24.777Z,11.50
2022-10-11T07:51:27.404Z,12.85
2022-10-11T07:52:29.764Z,13.23
2022-10-11T07:53:32.285Z,13.10
2022-10-11T07:54:40.390Z,12.77
2022-10-11T07:55:43.661Z,12.63
2022-10-11T07:56:46.282Z,14.00
2022-10-11T07:57:48.889Z,13.90
2022-10-11T07:58:57.545Z,13.23
2022-10-11T07:59:59.913Z,12.80
2022-10-11T08:01:02.448Z,12.90
2022-10-11T08:02:05.034Z,12.60
2022-10-11T08:03:07.526Z,12.43
2022-10-11T08:04:10.556Z,11.90
2022-10-11T08:05:13.070Z,13.02
2022-10-11T08:06:18.514Z,12.65
2022-10-11T08:07:21.940Z,12.00
2022-10-11T08:08:24.477Z,13.02
2022-10-11T08:09:26.882Z,12.45
2022-10-11T08:10:29.359Z,12.40
2022-10-11T08:11:36.031Z,12.40
2022-10-11T08:12:38.371Z,12.13
2022-10-11T08:13:40.803Z,11.95
2022-10-11T08:14:43.504Z,12.05
2022-10-11T08:15:45.934Z,12.85
2022-10-11T08:16:53.277Z,13.70
2022-10-11T08:17:55.702Z,23.60
2022-10-11T08:18:58.205Z,25.40
2022-10-11T08:20:00.695Z,21.50
2022-10-11T08:21:10.519Z,18.92
2022-10-11T08:22:13.106Z,16.80
2022-10-11T08:23:17.667Z,15.23
2022-10-11T08:24:23.633Z,15.32
2022-10-11T08:25:26.771Z,15.70
2022-10-11T08:26:29.539Z,14.10
2022-10-11T08:27:32.213Z,14.00
2022-10-11T08:28:34.699Z,15.02
2022-10-11T08:29:37.230Z,14.13
2022-10-11T08:30:39.606Z,13.63
2022-10-11T08:31:44.636Z,14.77
2022-10-11T08:32:47.327Z,14.73
2022-10-11T08:33:49.661Z,14.50
2022-10-11T08:35:57.506Z,16.08
2022-10-11T08:38:04.419Z,14.05
2022-10-11T08:39:07.553Z,14.10
2022-10-11T08:40:18.286Z,14.35
2022-10-11T08:41:46.320Z,13.07
2022-10-11T08:42:57.882Z,13.85
2022-10-11T08:44:20.317Z,13.95
2022-10-11T08:45:47.452Z,14.07
2022-10-11T08:47:00.387Z,12.98
2022-10-11T08:48:12.629Z,14.48
2022-10-11T08:49:17.218Z,14.55
2022-10-11T08:50:22.808Z,13.73
2022-10-11T08:51:34.055Z,15.38
2022-10-11T08:52:37.069Z,13.82
2022-10-11T08:53:49.998Z,14.52
2022-10-11T08:54:57.728Z,14.32
2022-10-11T08:56:05.417Z,14.40
2022-10-11T08:57:13.778Z,13.63
2022-10-11T08:58:20.592Z,14.48
2022-10-11T08:59:39.248Z,14.25
2022-10-11T09:00:43.098Z,14.40
2022-10-11T09:01:53.037Z,14.68
2022-10-11T09:03:09.481Z,15.48
2022-10-11T09:04:17.675Z,15.00
2022-10-11T09:05:20.855Z,14.30
2022-10-11T09:06:42.646Z,15.63
2022-10-11T09:08:00.490Z,14.93
2022-10-11T09:09:07.224Z,13.98
2022-10-11T09:10:21.996Z,14.40
2022-10-11T09:11:31.750Z,14.88
2022-10-11T09:12:57.777Z,13.75
2022-10-11T09:14:37.016Z,13.25
2022-10-11T09:15:55.052Z,14.80
2022-10-11T09:17:22.706Z,14.00
2022-10-11T09:18:49.193Z,14.13
2022-10-11T09:20:27.060Z,15.07
2022-10-11T09:21:44.422Z,14.05
2022-10-11T09:22:56.123Z,14.38
2022-10-11T09:24:21.648Z,15.02
2022-10-11T09:25:37.951Z,14.85
2022-10-11T09:26:55.326Z,14.68
2022-10-11T09:28:03.322Z,15.77
2022-10-11T09:29:25.123Z,14.32
2022-10-11T09:30:39.487Z,13.77
2022-10-11T09:31:54.478Z,13.73
2022-10-11T09:33:28.383Z,13.82
2022-10-11T09:34:33.789Z,12.77
2022-10-11T09:35:49.735Z,13.65
2022-10-11T09:37:07.345Z,14.10
2022-10-11T09:38:22.017Z,13.95
2022-10-11T09:39:45.292Z,15.00
2022-10-11T09:41:03.917Z,13.68
2022-10-11T09:42:10.743Z,13.25
2022-10-11T09:43:14.679Z,14.02
2022-10-11T09:45:27.135Z,13.60
2022-10-11T09:46:45.145Z,13.43
2022-10-11T09:47:50.088Z,14.48
2022-10-11T09:48:56.561Z,13.75
2022-10-11T09:50:06.956Z,12.88
2022-10-11T09:51:17.686Z,13.68
2022-10-11T09:52:22.683Z,13.38
2022-10-11T09:54:15.214Z,13.68
2022-10-11T09:58:35.223Z,14.68
2022-10-11T09:59:37.844Z,14.35
2022-10-11T10:00:40.326Z,14.65
2022-10-11T10:01:42.564Z,14.70
2022-10-11T10:02:50.514Z,16.05
2022-10-11T10:04:07.502Z,14.18
2022-10-11T10:05:09.672Z,14.20
2022-10-11T10:06:26.421Z,14.57
2022-10-11T10:07:34.260Z,14.32
2022-10-11T10:08:37.212Z,13.77
2022-10-11T10:09:39.393Z,13.40
2022-10-11T10:10:59.592Z,14.57
2022-10-11T10:12:12.257Z,13.93
2022-10-11T10:13:46.871Z,13.55
2022-10-11T10:15:18.949Z,14.73
2022-10-11T10:16:30.666Z,14.80
2022-10-11T10:17:34.024Z,16.52
2022-10-11T10:18:58.881Z,14.85
2022-10-11T10:20:01.300Z,15.18
2022-10-11T10:21:08.612Z,15.65
2022-10-11T10:22:21.169Z,13.52
2022-10-11T10:23:27.989Z,14.13
2022-10-11T10:24:32.992Z,14.52
2022-10-11T10:25:43.047Z,13.80
2022-10-11T10:27:06.646Z,12.98
2022-10-11T10:28:25.439Z,13.50
2022-10-11T10:29:27.658Z,13.18
2022-10-11T10:30:35.354Z,12.23
2022-10-11T10:32:12.743Z,12.63
2022-10-11T10:33:12.479Z,12.77
2022-10-11T10:34:18.233Z,12.52
2022-10-11T10:35:32.808Z,12.55
2022-10-11T10:36:39.091Z,12.45
2022-10-11T10:38:09.420Z,12.90
2022-10-11T10:39:39.144Z,12.82
2022-10-11T10:40:58.273Z,12.20
2022-10-11T10:42:05.143Z,12.43
2022-10-11T10:43:15.812Z,12.93
2022-10-11T10:44:17.923Z,12.85
2022-10-11T10:45:26.202Z,12.75
2022-10-11T10:46:34.614Z,12.25
2022-10-11T10:48:14.140Z,12.90
2022-10-11T10:49:53.310Z,13.70
2022-10-11T10:51:03.539Z,11.82
2022-10-11T10:52:36.153Z,13.85
2022-10-11T10:53:42.342Z,12.18
2022-10-11T10:54:53.726Z,12.52
2022-10-11T10:56:01.785Z,12.55
2022-10-11T10:57:24.103Z,13.00
2022-10-11T10:58:32.090Z,12.80
2022-10-11T11:00:01.520Z,13.05
2022-10-11T11:01:30.139Z,12.38
2022-10-11T11:02:41.337Z,12.70
2022-10-11T11:03:53.043Z,12.77
2022-10-11T11:05:11.150Z,13.05
2022-10-11T11:06:45.497Z,12.55
2022-10-11T11:07:54.741Z,13.45
2022-10-11T11:09:18.447Z,12.68
2022-10-11T11:10:23.078Z,12.88
2022-10-11T11:11:47.828Z,12.60
2022-10-11T11:13:13.181Z,11.95
2022-10-11T11:14:22.015Z,12.93
2022-10-11T11:15:59.344Z,13.63
2022-10-11T11:17:19.699Z,12.00
2022-10-11T11:18:29.612Z,14.02
2022-10-11T11:19:53.537Z,11.80
2022-10-11T11:21:11.167Z,12.60
2022-10-11T11:22:13.337Z,12.90
2022-10-11T11:23:37.140Z,13.43
2022-10-11T11:24:57.754Z,14.98
2022-10-11T11:26:09.804Z,14.32
2022-10-11T11:27:38.979Z,13.52
2022-10-11T11:28:50.226Z,13.15
2022-10-11T11:29:58.632Z,12.95
2022-10-11T11:31:19.567Z,13.13
2022-10-11T11:32:43.481Z,13.57
2022-10-11T11:34:03.841Z,14.80
2022-10-11T11:35:32.055Z,14.02
2022-10-11T11:36:58.115Z,16.48
2022-10-11T11:38:09.649Z,15.60
2022-10-11T11:39:24.846Z,15.55
2022-10-11T11:40:37.373Z,14.65
2022-10-11T11:41:55.552Z,14.40
2022-10-11T11:43:01.516Z,16.10
2022-10-11T11:44:27.184Z,13.25
2022-10-11T11:45:45.810Z,14.23
2022-10-11T11:47:03.193Z,12.50
2022-10-11T11:48:20.104Z,13.13
2022-10-11T11:50:04.395Z,13.55
2022-10-11T11:51:17.849Z,12.88
2022-10-11T11:52:26.732Z,13.48
2022-10-11T11:53:48.626Z,14.98
2022-10-11T11:55:15.606Z,14.00
2022-10-11T11:56:27.886Z,13.05
2022-10-11T11:57:45.092Z,12.48
2022-10-11T11:58:54.828Z,15.23
2022-10-11T12:00:04.466Z,14.23
2022-10-11T12:01:18.568Z,14.57
2022-10-11T12:02:43.846Z,14.10
2022-10-11T12:03:52.630Z,15.27
2022-10-11T12:04:55.539Z,14.60
2022-10-11T12:06:23.122Z,14.02
2022-10-11T12:07:28.099Z,14.10
2022-10-11T12:08:34.131Z,13.52
2022-10-11T12:09:38.236Z,13.80
2022-10-11T12:10:49.235Z,14.93
2022-10-11T12:11:54.866Z,15.90
2022-10-11T12:13:09.507Z,14.45
2022-10-11T12:14:24.882Z,13.65
2022-10-11T12:15:27.405Z,13.45
2022-10-11T12:16:29.641Z,14.40
2022-10-11T12:17:32.423Z,13.38
2022-10-11T12:18:41.924Z,12.85
2022-10-11T12:21:20.096Z,12.32
2022-10-11T12:22:28.587Z,13.98
2022-10-11T12:23:30.663Z,14.13
2022-10-11T12:25:21.410Z,15.07
2022-10-11T12:26:29.166Z,14.57
2022-10-11T12:27:45.171Z,14.35
2022-10-11T12:29:03.955Z,14.00
2022-10-11T12:30:44.790Z,14.55
2022-10-11T12:31:49.774Z,13.70
2022-10-11T12:32:52.808Z,13.80
2022-10-11T12:34:26.978Z,12.95
2022-10-11T12:35:32.445Z,14.13
2022-10-11T12:36:45.271Z,14.60
2022-10-11T12:37:51.756Z,15.70
2022-10-11T12:39:20.168Z,15.32
2022-10-11T12:40:41.906Z,15.70
2022-10-11T12:41:55.723Z,14.43
2022-10-11T12:43:31.656Z,15.55
2022-10-11T12:44:33.905Z,15.27
2022-10-11T12:45:36.216Z,15.25
2022-10-11T12:46:50.604Z,13.52
2022-10-11T12:47:58.440Z,13.95
2022-10-11T12:49:24.819Z,14.13
2022-10-11T12:50:42.235Z,15.25
2022-10-11T12:52:02.353Z,15.18
2022-10-11T12:53:07.649Z,15.75
2022-10-11T12:54:27.414Z,17.20
2022-10-11T12:55:42.886Z,15.48
2022-10-11T12:56:54.106Z,14.88
2022-10-11T12:58:15.310Z,14.75
2022-10-11T12:59:23.635Z,15.20
2022-10-11T13:00:32.072Z,15.63
2022-10-11T13:01:37.041Z,17.13
2022-10-11T13:02:44.643Z,16.40
2022-10-11T13:04:11.767Z,20.00
2022-10-11T13:05:23.680Z,19.33
2022-10-11T13:06:35.991Z,23.90
2022-10-11T13:07:41.331Z,17.33
2022-10-11T13:08:49.048Z,13.90
2022-10-11T13:09:54.046Z,17.30
2022-10-11T13:11:01.587Z,15.13
2022-10-11T13:12:12.752Z,14.43
2022-10-11T13:13:29.248Z,14.55
2022-10-11T13:15:37.522Z,15.48
2022-10-11T13:17:05.227Z,15.25
2022-10-11T13:18:14.644Z,14.35
2022-10-11T13:19:17.748Z,14.10
2022-10-11T13:20:26.286Z,13.95
2022-10-11T13:21:38.746Z,12.68
2022-10-11T13:22:41.287Z,13.27
2022-10-11T13:23:43.597Z,13.25
2022-10-11T13:24:46.243Z,14.80
2022-10-11T13:25:49.022Z,16.17
2022-10-11T13:26:54.636Z,17.42
2022-10-11T13:27:59.664Z,18.80
2022-10-11T13:29:02.017Z,19.20
2022-10-11T13:30:13.321Z,17.88
2022-10-11T13:31:15.557Z,15.52
2022-10-11T13:32:24.529Z,16.48
2022-10-11T13:33:37.648Z,15.13
2022-10-11T13:34:41.805Z,14.07
2022-10-11T13:35:44.205Z,14.48
2022-10-11T13:36:46.636Z,15.65
2022-10-11T13:37:49.616Z,14.60
2022-10-11T13:39:00.213Z,15.45
2022-10-11T13:40:02.533Z,12.73
2022-10-11T13:41:08.509Z,12.88
2022-10-11T13:42:14.666Z,12.73
2022-10-11T13:43:20.895Z,14.27
2022-10-11T13:44:25.315Z,14.35
2022-10-11T13:45:30.985Z,13.68
2022-10-11T13:46:34.106Z,12.70
2022-10-11T13:47:37.352Z,13.98
2022-10-11T13:48:41.630Z,14.73
2022-10-11T13:49:53.549Z,12.98
2022-10-11T13:51:28.137Z,14.18
2022-10-11T13:52:30.308Z,13.25
2022-10-11T13:53:32.979Z,14.00
2022-10-11T13:55:08.661Z,14.27
2022-10-11T13:56:12.641Z,12.95
2022-10-11T13:57:15.313Z,13.00
2022-10-11T13:58:44.817Z,13.18
2022-10-11T13:59:47.145Z,12.52
2022-10-11T14:00:59.081Z,15.15
2022-10-11T14:02:04.454Z,14.27
2022-10-11T14:03:12.583Z,13.82
2022-10-11T14:04:17.385Z,13.80
2022-10-11T14:05:38.710Z,13.20
2022-10-11T14:06:53.101Z,12.55
2022-10-11T14:07:56.714Z,13.50
2022-10-11T14:08:59.621Z,13.82
2022-10-11T14:10:02.189Z,13.57
2022-10-11T14:11:06.724Z,13.90
2022-10-11T14:12:41.051Z,14.43
2022-10-11T14:13:50.112Z,13.40
2022-10-11T14:14:52.623Z,14.93
2022-10-11T14:16:08.688Z,13.82
2022-10-11T14:17:20.419Z,13.68
2022-10-11T14:18:42.962Z,14.85
2022-10-11T14:19:48.171Z,16.38
2022-10-11T14:20:53.384Z,15.20
2022-10-11T14:21:55.634Z,17.50
2022-10-11T14:22:57.915Z,15.55
2022-10-11T14:24:06.752Z,13.45
2022-10-11T14:25:09.157Z,13.35
2022-10-11T14:26:18.758Z,13.43
2022-10-11T14:27:23.727Z,17.15
2022-10-11T14:28:26.132Z,16.90
2022-10-11T14:29:30.157Z,16.83
2022-10-11T14:31:40.555Z,16.27
2022-10-11T14:32:44.232Z,15.15
2022-10-11T14:33:46.440Z,15.07
2022-10-11T14:34:49.548Z,13.27
2022-10-11T14:35:51.922Z,13.55
2022-10-11T14:36:54.488Z,13.90
2022-10-11T14:37:56.740Z,14.00
2022-10-11T14:38:58.923Z,12.93
2022-10-11T14:40:01.136Z,12.98
2022-10-11T14:41:03.429Z,13.43
2022-10-11T14:42:05.740Z,13.88
2022-10-11T14:43:08.046Z,12.80
2022-10-11T14:44:10.716Z,13.20
2022-10-11T14:45:13.048Z,14.57
2022-10-11T14:46:26.417Z,14.00
2022-10-11T14:47:29.625Z,13.23
2022-10-11T14:48:53.719Z,14.70
2022-10-11T14:49:54.614Z,14.77